sensor_id;sensor_type;location;lat;lon;timestamp;pressure;altitude;pressure_sealevel;temperature;humidity
61109;BME280;46995;55.740;37.402;2022-07-23T17:17:54;99178.56;;;23.58;57.72
61109;BME280;46995;55.740;37.402;2022-07-23T17:20:21;99153.50;;;23.33;58.28
61109;BME280;46995;55.740;37.402;2022-07-23T17:22:47;99164.50;;;23.32;58.43
61109;BME280;46995;55.740;37.402;2022-07-23T17:25:12;99181.03;;;23.35;58.73
61109;BME280;46995;55.740;37.402;2022-07-23T17:27:44;99161.13;;;23.18;59.22
61109;BME280;46995;55.740;37.402;2022-07-23T17:30:11;99151.06;;;23.07;59.51
61109;BME280;46995;55.740;37.402;2022-07-23T17:32:37;99161.53;;;22.97;59.60
61109;BME280;46995;55.740;37.402;2022-07-23T17:35:04;99160.75;;;22.90;59.95
61109;BME280;46995;55.740;37.402;2022-07-23T17:37:30;99150.69;;;22.78;60.12
61109;BME280;46995;55.740;37.402;2022-07-23T17:39:56;99157.56;;;22.74;60.26
61109;BME280;46995;55.740;37.402;2022-07-23T17:42:23;99119.69;;;22.45;60.67
61109;BME280;46995;55.740;37.402;2022-07-23T17:44:48;99138.72;;;22.43;60.77
61109;BME280;46995;55.740;37.402;2022-07-23T17:47:14;99184.13;;;22.64;61.08
61109;BME280;46995;55.740;37.402;2022-07-23T17:49:41;99163.97;;;22.42;61.45
61109;BME280;46995;55.740;37.402;2022-07-23T17:52:07;99166.50;;;22.37;62.21
61109;BME280;46995;55.740;37.402;2022-07-23T17:54:33;99195.84;;;22.45;62.68
61109;BME280;46995;55.740;37.402;2022-07-23T17:56:59;99191.75;;;22.36;62.92
61109;BME280;46995;55.740;37.402;2022-07-23T17:59:25;99190.91;;;22.35;63.18
61109;BME280;46995;55.740;37.402;2022-07-23T18:01:51;99195.13;;;22.25;63.65
61109;BME280;46995;55.740;37.402;2022-07-23T18:04:18;99183.63;;;22.05;63.84
61109;BME280;46995;55.740;37.402;2022-07-23T18:06:44;99173.34;;;21.95;64.11
61109;BME280;46995;55.740;37.402;2022-07-23T18:09:12;99178.13;;;21.86;64.53
61109;BME280;46995;55.740;37.402;2022-07-23T18:11:40;99182.69;;;21.79;64.60
61109;BME280;46995;55.740;37.402;2022-07-23T18:14:07;99169.31;;;21.66;64.39
61109;BME280;46995;55.740;37.402;2022-07-23T18:16:34;99209.75;;;21.84;64.70
61109;BME280;46995;55.740;37.402;2022-07-23T18:19:00;99210.97;;;21.88;63.71
61109;BME280;46995;55.740;37.402;2022-07-23T18:21:27;99176.75;;;21.58;65.03
61109;BME280;46995;55.740;37.402;2022-07-23T18:23:53;99178.44;;;21.52;65.32
61109;BME280;46995;55.740;37.402;2022-07-23T18:26:19;99201.38;;;21.61;65.90
61109;BME280;46995;55.740;37.402;2022-07-23T18:28:45;99184.03;;;21.44;65.72
61109;BME280;46995;55.740;37.402;2022-07-23T18:31:11;99217.69;;;21.60;65.86
61109;BME280;46995;55.740;37.402;2022-07-23T18:33:38;99222.88;;;21.54;65.99
61109;BME280;46995;55.740;37.402;2022-07-23T18:36:04;99205.34;;;21.45;66.26
61109;BME280;46995;55.740;37.402;2022-07-23T18:38:30;99201.22;;;21.30;66.14
61109;BME280;46995;55.740;37.402;2022-07-23T18:40:56;99184.69;;;21.13;66.14
61109;BME280;46995;55.740;37.402;2022-07-23T18:43:22;99183.03;;;21.12;66.22
61109;BME280;46995;55.740;37.402;2022-07-23T18:45:48;99204.13;;;21.22;66.07
61109;BME280;46995;55.740;37.402;2022-07-23T18:48:15;99216.31;;;21.24;66.26
61109;BME280;46995;55.740;37.402;2022-07-23T18:50:42;99203.47;;;21.06;66.62
61109;BME280;46995;55.740;37.402;2022-07-23T18:53:08;99192.13;;;20.98;66.91
61109;BME280;46995;55.740;37.402;2022-07-23T18:55:34;99218.75;;;21.12;67.35
61109;BME280;46995;55.740;37.402;2022-07-23T18:57:59;99190.28;;;20.92;67.25
61109;BME280;46995;55.740;37.402;2022-07-23T19:00:29;99197.91;;;20.88;67.46
61109;BME280;46995;55.740;37.402;2022-07-23T19:02:57;99214.22;;;20.93;67.59
61109;BME280;46995;55.740;37.402;2022-07-23T19:05:23;99206.16;;;20.80;67.74
61109;BME280;46995;55.740;37.402;2022-07-23T19:07:48;99219.78;;;20.85;67.94
61109;BME280;46995;55.740;37.402;2022-07-23T19:10:14;99210.28;;;20.76;67.81
61109;BME280;46995;55.740;37.402;2022-07-23T19:12:40;99190.44;;;20.64;67.96
61109;BME280;46995;55.740;37.402;2022-07-23T19:15:06;99231.75;;;20.76;67.88
61109;BME280;46995;55.740;37.402;2022-07-23T19:17:32;99235.06;;;20.78;67.70
61109;BME280;46995;55.740;37.402;2022-07-23T19:19:58;99204.28;;;20.54;67.64
61109;BME280;46995;55.740;37.402;2022-07-23T19:22:24;99225.53;;;20.62;68.13
61109;BME280;46995;55.740;37.402;2022-07-23T19:24:53;99202.19;;;20.43;68.00
61109;BME280;46995;55.740;37.402;2022-07-23T19:27:19;99212.31;;;20.48;68.50
61109;BME280;46995;55.740;37.402;2022-07-23T19:29:45;99219.31;;;20.49;68.39
61109;BME280;46995;55.740;37.402;2022-07-23T19:32:11;99234.19;;;20.58;68.49
61109;BME280;46995;55.740;37.402;2022-07-23T19:34:37;99213.94;;;20.42;68.30
61109;BME280;46995;55.740;37.402;2022-07-23T19:37:04;99220.13;;;20.43;68.16
61109;BME280;46995;55.740;37.402;2022-07-23T19:39:44;99222.22;;;20.41;68.38
61109;BME280;46995;55.740;37.402;2022-07-23T19:42:11;99251.94;;;20.52;68.46
61109;BME280;46995;55.740;37.402;2022-07-23T19:44:37;99255.66;;;20.58;67.91
61109;BME280;46995;55.740;37.402;2022-07-23T19:47:03;99222.75;;;20.29;68.37
61109;BME280;46995;55.740;37.402;2022-07-23T19:49:30;99224.59;;;20.22;68.71
61109;BME280;46995;55.740;37.402;2022-07-23T19:51:57;99241.31;;;20.24;69.31
61109;BME280;46995;55.740;37.402;2022-07-23T19:54:25;99261.41;;;20.35;69.46
61109;BME280;46995;55.740;37.402;2022-07-23T19:56:51;99256.44;;;20.39;68.92
61109;BME280;46995;55.740;37.402;2022-07-23T19:59:16;99251.81;;;20.26;69.26
61109;BME280;46995;55.740;37.402;2022-07-23T20:01:43;99250.53;;;20.15;70.28
61109;BME280;46995;55.740;37.402;2022-07-23T20:04:08;99252.63;;;20.13;70.57
61109;BME280;46995;55.740;37.402;2022-07-23T20:06:34;99257.53;;;20.03;70.92
61109;BME280;46995;55.740;37.402;2022-07-23T20:09:00;99240.75;;;19.88;70.95
61109;BME280;46995;55.740;37.402;2022-07-23T20:11:26;99265.56;;;20.03;71.30
61109;BME280;46995;55.740;37.402;2022-07-23T20:13:52;99253.31;;;19.87;71.78
61109;BME280;46995;55.740;37.402;2022-07-23T20:16:18;99263.25;;;20.00;72.08
61109;BME280;46995;55.740;37.402;2022-07-23T20:18:44;99230.13;;;19.73;71.95
61109;BME280;46995;55.740;37.402;2022-07-23T20:21:10;99260.34;;;19.95;72.54
61109;BME280;46995;55.740;37.402;2022-07-23T20:23:36;99263.03;;;19.95;72.38
61109;BME280;46995;55.740;37.402;2022-07-23T20:26:02;99229.09;;;19.68;73.05
61109;BME280;46995;55.740;37.402;2022-07-23T20:28:28;99235.16;;;19.83;72.72
61109;BME280;46995;55.740;37.402;2022-07-23T20:30:54;99253.38;;;20.01;72.40
61109;BME280;46995;55.740;37.402;2022-07-23T20:33:22;99239.31;;;19.92;72.62
61109;BME280;46995;55.740;37.402;2022-07-23T20:35:48;99259.19;;;20.11;72.38
61109;BME280;46995;55.740;37.402;2022-07-23T20:38:15;99228.19;;;19.88;72.22
61109;BME280;46995;55.740;37.402;2022-07-23T20:40:41;99231.50;;;19.97;72.83
61109;BME280;46995;55.740;37.402;2022-07-23T20:43:07;99253.19;;;20.02;72.72
61109;BME280;46995;55.740;37.402;2022-07-23T20:45:35;99231.84;;;19.81;73.19
61109;BME280;46995;55.740;37.402;2022-07-23T20:48:01;99230.38;;;19.78;73.02
61109;BME280;46995;55.740;37.402;2022-07-23T20:50:27;99244.03;;;19.83;73.23
61109;BME280;46995;55.740;37.402;2022-07-23T20:52:53;99260.34;;;19.95;73.29
61109;BME280;46995;55.740;37.402;2022-07-23T20:55:22;99234.94;;;19.78;73.80
61109;BME280;46995;55.740;37.402;2022-07-23T20:57:48;99221.25;;;19.66;73.67
61109;BME280;46995;55.740;37.402;2022-07-23T21:00:15;99237.75;;;19.70;73.70
61109;BME280;46995;55.740;37.402;2022-07-23T21:02:41;99225.53;;;19.61;73.93
61109;BME280;46995;55.740;37.402;2022-07-23T21:05:08;99249.72;;;19.67;74.18
61109;BME280;46995;55.740;37.402;2022-07-23T21:07:35;99245.31;;;19.60;74.66
61109;BME280;46995;55.740;37.402;2022-07-23T21:10:00;99250.28;;;19.63;73.84
61109;BME280;46995;55.740;37.402;2022-07-23T21:12:26;99244.44;;;19.53;74.17
61109;BME280;46995;55.740;37.402;2022-07-23T21:14:52;99205.09;;;19.25;74.53
61109;BME280;46995;55.740;37.402;2022-07-23T21:17:19;99219.75;;;19.29;75.15
61109;BME280;46995;55.740;37.402;2022-07-23T21:19:44;99191.38;;;19.07;75.03
61109;BME280;46995;55.740;37.402;2022-07-23T21:22:11;99227.53;;;19.24;75.29
61109;BME280;46995;55.740;37.402;2022-07-23T21:24:37;99229.00;;;19.27;75.31
61109;BME280;46995;55.740;37.402;2022-07-23T21:27:03;99189.88;;;18.98;75.69
61109;BME280;46995;55.740;37.402;2022-07-23T21:29:29;99190.88;;;18.97;75.27
61109;BME280;46995;55.740;37.402;2022-07-23T21:31:55;99198.25;;;18.95;75.72
61109;BME280;46995;55.740;37.402;2022-07-23T21:34:22;99221.81;;;19.06;75.75
61109;BME280;46995;55.740;37.402;2022-07-23T21:36:48;99231.28;;;19.02;75.96
61109;BME280;46995;55.740;37.402;2022-07-23T21:39:14;99196.50;;;18.81;76.06
61109;BME280;46995;55.740;37.402;2022-07-23T21:41:41;99192.31;;;18.72;76.19
61109;BME280;46995;55.740;37.402;2022-07-23T21:44:08;99205.53;;;18.80;76.18
61109;BME280;46995;55.740;37.402;2022-07-23T21:46:34;99218.81;;;18.88;76.12
61109;BME280;46995;55.740;37.402;2022-07-23T21:49:01;99193.50;;;18.69;76.34
61109;BME280;46995;55.740;37.402;2022-07-23T21:51:27;99183.97;;;18.60;76.24
61109;BME280;46995;55.740;37.402;2022-07-23T21:53:54;99176.91;;;18.52;76.51
61109;BME280;46995;55.740;37.402;2022-07-23T21:56:20;99197.59;;;18.65;76.47
61109;BME280;46995;55.740;37.402;2022-07-23T21:58:46;99172.50;;;18.45;76.82
61109;BME280;46995;55.740;37.402;2022-07-23T22:01:12;99172.31;;;18.46;77.01
61109;BME280;46995;55.740;37.402;2022-07-23T22:03:38;99171.00;;;18.42;77.07
61109;BME280;46995;55.740;37.402;2022-07-23T22:06:04;99173.44;;;18.37;77.19
61109;BME280;46995;55.740;37.402;2022-07-23T22:08:29;99174.22;;;18.31;77.04
61109;BME280;46995;55.740;37.402;2022-07-23T22:10:55;99197.75;;;18.42;77.51
61109;BME280;46995;55.740;37.402;2022-07-23T22:13:21;99167.97;;;18.24;77.68
61109;BME280;46995;55.740;37.402;2022-07-23T22:15:47;99177.44;;;18.27;77.57
61109;BME280;46995;55.740;37.402;2022-07-23T22:18:13;99181.59;;;18.29;77.82
61109;BME280;46995;55.740;37.402;2022-07-23T22:20:39;99168.53;;;18.19;77.43
61109;BME280;46995;55.740;37.402;2022-07-23T22:23:05;99173.69;;;18.21;77.90
61109;BME280;46995;55.740;37.402;2022-07-23T22:25:31;99207.00;;;18.40;78.13
61109;BME280;46995;55.740;37.402;2022-07-23T22:27:57;99204.50;;;18.38;78.07
61109;BME280;46995;55.740;37.402;2022-07-23T22:30:23;99185.97;;;18.15;77.85
61109;BME280;46995;55.740;37.402;2022-07-23T22:32:49;99211.81;;;18.30;77.85
61109;BME280;46995;55.740;37.402;2022-07-23T22:35:15;99208.06;;;18.24;78.13
61109;BME280;46995;55.740;37.402;2022-07-23T22:37:43;99189.19;;;18.11;77.83
61109;BME280;46995;55.740;37.402;2022-07-23T22:40:09;99220.78;;;18.22;78.26
61109;BME280;46995;55.740;37.402;2022-07-23T22:42:36;99184.34;;;18.00;78.41
61109;BME280;46995;55.740;37.402;2022-07-23T22:45:02;99195.66;;;18.02;78.03
61109;BME280;46995;55.740;37.402;2022-07-23T22:47:28;99203.25;;;17.98;78.03
61109;BME280;46995;55.740;37.402;2022-07-23T22:49:54;99191.06;;;17.96;78.39
61109;BME280;46995;55.740;37.402;2022-07-23T22:52:20;99186.50;;;17.90;78.13
61109;BME280;46995;55.740;37.402;2022-07-23T22:54:46;99178.22;;;17.85;78.13
61109;BME280;46995;55.740;37.402;2022-07-23T22:57:11;99193.13;;;17.94;78.28
61109;BME280;46995;55.740;37.402;2022-07-23T22:59:37;99191.47;;;17.93;78.12
61109;BME280;46995;55.740;37.402;2022-07-23T23:02:03;99206.34;;;18.02;78.40
61109;BME280;46995;55.740;37.402;2022-07-23T23:04:28;99195.78;;;17.94;78.52
61109;BME280;46995;55.740;37.402;2022-07-23T23:06:54;99211.25;;;17.98;78.37
61109;BME280;46995;55.740;37.402;2022-07-23T23:09:20;99207.09;;;17.96;78.74
61109;BME280;46995;55.740;37.402;2022-07-23T23:11:46;99185.59;;;17.83;78.99
61109;BME280;46995;55.740;37.402;2022-07-23T23:14:12;99169.38;;;17.69;78.89
61109;BME280;46995;55.740;37.402;2022-07-23T23:16:37;99155.47;;;17.59;78.86
61109;BME280;46995;55.740;37.402;2022-07-23T23:19:03;99193.69;;;17.74;79.04
61109;BME280;46995;55.740;37.402;2022-07-23T23:21:29;99172.16;;;17.61;79.06
61109;BME280;46995;55.740;37.402;2022-07-23T23:23:55;99174.00;;;17.61;79.03
61109;BME280;46995;55.740;37.402;2022-07-23T23:26:20;99180.53;;;17.58;79.16
61109;BME280;46995;55.740;37.402;2022-07-23T23:28:46;99167.34;;;17.57;78.99
61109;BME280;46995;55.740;37.402;2022-07-23T23:31:12;99175.72;;;17.54;78.99
61109;BME280;46995;55.740;37.402;2022-07-23T23:33:38;99182.00;;;17.61;78.76
61109;BME280;46995;55.740;37.402;2022-07-23T23:36:04;99184.84;;;17.59;79.17
61109;BME280;46995;55.740;37.402;2022-07-23T23:38:29;99165.31;;;17.44;79.17
61109;BME280;46995;55.740;37.402;2022-07-23T23:40:55;99172.31;;;17.45;79.00
61109;BME280;46995;55.740;37.402;2022-07-23T23:43:22;99174.72;;;17.40;79.38
61109;BME280;46995;55.740;37.402;2022-07-23T23:45:48;99159.81;;;17.31;79.46
61109;BME280;46995;55.740;37.402;2022-07-23T23:48:14;99186.69;;;17.44;79.58
61109;BME280;46995;55.740;37.402;2022-07-23T23:50:39;99203.91;;;17.56;79.37
61109;BME280;46995;55.740;37.402;2022-07-23T23:53:05;99197.72;;;17.56;79.60
61109;BME280;46995;55.740;37.402;2022-07-23T23:55:32;99167.09;;;17.37;79.45
61109;BME280;46995;55.740;37.402;2022-07-23T23:57:58;99164.16;;;17.32;79.51
